Nearby METAR Reports

 

KAVP - Avoca/Wilkes B., Pennsylvania, USA
Distance from station: SW 13mi, 22km
Updated: Wed, 22-Nov-2017 23:54 EST
Overcast
Overcast
 Wind from NW
Wind: NW 12 mph , 19 km/h
Temperature: 30°F , -1°C
Wind Chill: 20°F , -7°C
Dew Point: 18°F , -8°C
Humidity: 59%
Barometer: 30.11 inHg , 1019.6 hPa
Clouds: Overcast
Visibility: 10 miles , 16 km
Cloud details: Overcast 3300 ft
2017/11/23 04:54 KAVP 230454Z 31010KT 10SM OVC033 M01/M08 A3011 RMK AO2 SLP204 T10111078 400891011
KMPO - Mt. Pocono, Pennsylvania, USA
Distance from station: SSE 26mi, 43km
Updated: Wed, 22-Nov-2017 23:53 EST
Mostly cloudy
Mostly cloudy
 Wind from NW
Wind: NW 12 mph , 19 km/h, Gust: 23 mph , 37 km/h
Temperature: 25°F , -4°C
Wind Chill: 14°F , -10°C
Dew Point: 18°F , -8°C
Humidity: 74%
Barometer: 30.04 inHg , 1017.3 hPa
Clouds: Mostly cloudy
Visibility: 10 miles , 16 km
Cloud details: Mostly cloudy 2300 ft
2017/11/23 04:53 KMPO 230453Z AUTO 31010G20KT 10SM BKN023 M04/M08 A3004 RMK AO2 PK WND 31030/0354 SLP192 T10391078 400611039
KMSV - Monticello, New York, USA
Distance from station: ENE 43mi, 69km
Updated: Wed, 22-Nov-2017 23:56 EST
Overcast
Overcast
 Wind from NW
Wind: NW 10 mph , 17 km/h, Gust: 20 mph , 31 km/h
Temperature: 27°F , -3°C
Wind Chill: 18°F , -8°C
Dew Point: 18°F , -8°C
Humidity: 69%
Barometer: 30.05 inHg , 1017.6 hPa
Clouds: Overcast
Visibility: 10 miles , 16 km
Cloud details: Overcast 2800 ft
2017/11/23 04:56 KMSV 230456Z AUTO 32009G17KT 10SM OVC028 M03/M08 A3005 RMK AO2 SLP191 T10281078 400501028 FZRANO
 
KFWN - Sussex, New Jersey, USA
Distance from station: ESE 52mi, 84km
Updated: Wed, 22-Nov-2017 23:53 EST
Mostly cloudy
Mostly cloudy
 Wind from calm
Wind: Calm
Temperature: 32°F , 0°C
Dew Point: 19°F , -7°C
Humidity: 60%
Barometer: 30.11 inHg , 1019.6 hPa
Clouds: Mostly cloudy
Visibility: 10 miles , 16 km
Cloud details: Mostly cloudy 3600 ft
2017/11/23 04:53 KFWN 230453Z AUTO 00000KT 10SM BKN036 00/M07 A3011 RMK AO2 SLP197 T00001072 401000000
K12N - Andover, New Jersey, USA
Distance from station: SE 54mi, 87km
Updated: Wed, 22-Nov-2017 23:54 EST

 Wind from NNW
Wind: NNW 6 mph , 9 km/h
Temperature: 30°F , -1°C
Wind Chill: 24°F , -4°C
Dew Point: 19°F , -7°C
Humidity: 64%
Barometer: 30.11 inHg , 1019.6 hPa
2017/11/23 04:54 K12N 230454Z AUTO 33005KT M01/M07 A3011 RMK AO1 SLP202 T10061072 400941006
KBGM - Binghamton, New York, USA
Distance from station: NNW 55mi, 88km
Updated: Wed, 22-Nov-2017 23:53 EST
Overcast
Overcast
 Wind from NW
Wind: NW 12 mph , 19 km/h, Gust: 21 mph , 33 km/h
Temperature: 27°F , -3°C
Wind Chill: 16°F , -9°C
Dew Point: 16°F , -9°C
Humidity: 64%
Barometer: 30.08 inHg , 1018.6 hPa
Clouds: Overcast
Visibility: 10 miles , 16 km
Cloud details: Overcast 2300 ft
2017/11/23 04:53 KBGM 230453Z AUTO 32010G18KT 10SM OVC023 M03/M09 A3008 RMK AO2 SLP204 T10331089 400671033
 
KABE - Allentown, Pennsylvania, USA
Distance from station: S 58mi, 94km
Updated: Wed, 22-Nov-2017 23:51 EST
Clear
Clear
 Wind from NNW
Wind: NNW 14 mph , 22 km/h
Temperature: 34°F , 1°C
Wind Chill: 25°F , -4°C
Dew Point: 18°F , -8°C
Humidity: 51%
Barometer: 30.11 inHg , 1019.6 hPa
Clouds: Clear
Visibility: 10 miles , 16 km
2017/11/23 04:51 KABE 230451Z 33012KT 10SM CLR 01/M08 A3011 RMK AO2 SLP200 T00061078 401220006
KXLL - Allentown Queen, Pennsylvania, USA
Distance from station: S 64mi, 103km
Updated: Wed, 22-Nov-2017 23:55 EST
Clear
Clear
 Wind from NW
Wind: NW 6 mph , 9 km/h
Temperature: 32°F , 0°C
Wind Chill: 26°F , -3°C
Dew Point: 21°F , -6°C
Humidity: 64%
Barometer: 30.14 inHg , 1020.7 hPa
Clouds: Clear
Visibility: 10 miles , 16 km
2017/11/23 04:55 KXLL 230455Z AUTO 32005KT 10SM CLR 00/M06 A3014 RMK AO2
KMGJ - Montgomery, New York, USA
Distance from station: E 67mi, 108km
Updated: Wed, 22-Nov-2017 23:54 EST
Clear
Clear
 Wind from WNW
Wind: WNW 7 mph , 11 km/h
Temperature: 32°F , 0°C
Wind Chill: 25°F , -4°C
Dew Point: 19°F , -7°C
Humidity: 60%
Barometer: 30.07 inHg , 1018.3 hPa
Clouds: Clear
Visibility: 10 miles , 16 km
2017/11/23 04:54 KMGJ 230454Z AUTO 29006KT 10SM CLR 00/M07 A3007 RMK AO2 SLP184 T00001072 401061017
 
KIPT - Williamsport, Pennsylvania, USA
Distance from station: WSW 72mi, 116km
Updated: Wed, 22-Nov-2017 23:54 EST
Mostly cloudy
Mostly cloudy
 Wind from NW
Wind: NW 3 mph , 6 km/h
Temperature: 34°F , 1°C
Dew Point: 19°F , -7°C
Humidity: 56%
Barometer: 30.16 inHg , 1021.3 hPa
Clouds: Mostly cloudy
Visibility: 10 miles , 16 km
Cloud details: Mostly cloudy 4100 ft
2017/11/23 04:54 KIPT 230454Z AUTO 32003KT 10SM BKN041 01/M07 A3016 RMK AO2 SLP218 T00061072 400780006
KUKT - Quakertown Arp, Pennsylvania, USA
Distance from station: S 74mi, 119km
Updated: Wed, 22-Nov-2017 23:55 EST
Clear
Clear
 Wind from NW
Wind: NW 6 mph , 9 km/h
Temperature: 32°F , 0°C
Wind Chill: 26°F , -3°C
Dew Point: 19°F , -7°C
Humidity: 60%
Barometer: 30.12 inHg , 1020 hPa
Clouds: Clear
Visibility: 10 miles , 16 km
2017/11/23 04:55 KUKT 230455Z AUTO 31005KT 10SM CLR 00/M07 A3012 RMK AO1
KSMQ - Somerville, New Jersey, USA
Distance from station: SE 76mi, 123km
Updated: Wed, 22-Nov-2017 23:53 EST
Clear
Clear
 Wind from NW
Wind: NW 7 mph , 11 km/h
Temperature: 34°F , 1°C
Wind Chill: 28°F , -2°C
Dew Point: 21°F , -6°C
Humidity: 60%
Barometer: 30.10 inHg , 1019.3 hPa
Clouds: Clear
Visibility: 10 miles , 16 km
2017/11/23 04:53 KSMQ 230453Z AUTO 32006KT 10SM CLR 01/M06 A3010 RMK AO2 SLP193 T00111061 401280006
 
KSWF - Newburgh/Stewart, New York, USA
Distance from station: E 77mi, 123km
Updated: Wed, 22-Nov-2017 23:45 EST
Mostly cloudy
Mostly cloudy
 Wind from WNW
Wind: WNW 14 mph , 22 km/h
Temperature: 32°F , 0°C
Wind Chill: 22°F , -6°C
Dew Point: 23°F , -5°C
Humidity: 69%
Barometer: 30.07 inHg , 1018.3 hPa
Clouds: Mostly cloudy
Visibility: 10 miles , 16 km
Cloud details: Mostly cloudy 4000 ft
2017/11/23 04:45 KSWF 230445Z 30012KT 10SM BKN040 00/M05 A3007
KMMU - Morristown Muni, New Jersey, USA
Distance from station: SE 77mi, 124km
Updated: Wed, 22-Nov-2017 23:55 EST
Clear
Clear
 Wind from WNW
Wind: WNW 3 mph , 6 km/h
Temperature: 32°F , 0°C
Dew Point: 21°F , -6°C
Humidity: 64%
Barometer: 30.11 inHg , 1019.6 hPa
Clouds: Clear
Visibility: 10 miles , 16 km
2017/11/23 04:55 KMMU 230455Z AUTO 30003KT 10SM CLR 00/M06 A3011 RMK AO2
KCDW - Caldwell, New Jersey, USA
Distance from station: ESE 79mi, 127km
Updated: Wed, 22-Nov-2017 23:53 EST
Few Clouds
Few Clouds
 Wind from calm
Wind: Calm
Temperature: 32°F , 0°C
Dew Point: 19°F , -7°C
Humidity: 60%
Barometer: 30.11 inHg , 1019.6 hPa
Clouds: Few Clouds
Visibility: 10 miles , 16 km
Cloud details: Few Clouds 3700 ft
2017/11/23 04:53 KCDW 230453Z AUTO 00000KT 10SM FEW037 00/M07 A3011 RMK AO2 SLP201 T00001067 401060000 TSNO
 
KRDG - Reading, Pennsylvania, USA
Distance from station: SSW 80mi, 130km
Updated: Wed, 22-Nov-2017 23:54 EST
Clear
Clear
 Wind from NNW
Wind: NNW 9 mph , 15 km/h
Temperature: 34°F , 1°C
Wind Chill: 27°F , -3°C
Dew Point: 21°F , -6°C
Humidity: 60%
Barometer: 30.13 inHg , 1020.3 hPa
Clouds: Clear
Visibility: 10 miles , 16 km
2017/11/23 04:54 KRDG 230454Z AUTO 34008KT 10SM CLR 01/M06 A3013 RMK AO2 SLP211 T00111056 401220006
KITH - Ithaca/Tompkins, New York, USA
Distance from station: NW 81mi, 131km
Updated: Wed, 22-Nov-2017 23:56 EST
Overcast
Overcast
 Wind from NW
Wind: NW 12 mph , 19 km/h
Temperature: 27°F , -3°C
Wind Chill: 16°F , -9°C
Dew Point: 19°F , -7°C
Humidity: 74%
Barometer: 30.13 inHg , 1020.3 hPa
Clouds: Overcast
Visibility: 10 miles , 16 km
Cloud details: Overcast 2300 ft
2017/11/23 04:56 KITH 230456Z AUTO 31010KT 10SM OVC023 M03/M07 A3013 RMK AO2 SLP215 T10281067
KSEG - Selinsgrove, Pennsylvania, USA
Distance from station: SW 82mi, 132km
Updated: Wed, 22-Nov-2017 23:53 EST
Overcast
Overcast
 Wind from NNW
Wind: NNW 6 mph , 9 km/h
Temperature: 34°F , 1°C
Wind Chill: 29°F , -2°C
Dew Point: 21°F , -6°C
Humidity: 60%
Barometer: 30.18 inHg , 1022 hPa
Clouds: Overcast
Visibility: 10 miles , 16 km
Cloud details: Overcast 4400 ft
2017/11/23 04:53 KSEG 230453Z AUTO 33005KT 10SM OVC044 01/M06 A3018 RMK AO2 SLP223 T00061056 400891006
 
KELM - Elmira, New York, USA
Distance from station: WNW 82mi, 133km
Updated: Wed, 22-Nov-2017 23:53 EST
Overcast
Overcast
 Wind from calm
Wind: Calm
Temperature: 25°F , -4°C
Dew Point: 18°F , -8°C
Humidity: 74%
Barometer: 30.15 inHg , 1021 hPa
Clouds: Overcast
Visibility: 10 miles , 16 km
Cloud details: Overcast 3400 ft
2017/11/23 04:53 KELM 230453Z 00000KT 10SM OVC034 M04/M08 A3015 RMK AO2 SLP221 T10391078 400611044
KDYL - Doylestown, Pennsylvania, USA
Distance from station: SSE 83mi, 134km
Updated: Wed, 22-Nov-2017 23:54 EST
Clear
Clear
 Wind from WSW
Wind: WSW 3 mph , 6 km/h
Temperature: 32°F , 0°C
Dew Point: 19°F , -7°C
Humidity: 60%
Barometer: 30.12 inHg , 1020 hPa
Clouds: Clear
Visibility: 10 miles , 16 km
2017/11/23 04:54 KDYL 230454Z AUTO 25003KT 10SM CLR 00/M07 A3012 RMK AO2 SLP203 T00001067 401220000